Terminal Aerodrome Forecast
Issued by NWS Tulsa, OK

Home | Current Version | Previous Version | Text Only | Print | Product List | Glossary Off
Versions: 1 2 3 4 5 6 7 8 9 10 11 12 13 14 15 16 17 18 19 20 21

494
FTUS44 KTSA 071129
TAFFSM
TAF
KFSM 071129Z 0712/0812 06009KT P6SM OVC040
     FM080000 03010KT P6SM OVC050
     FM080300 36012KT P6SM OVC050
     FM080900 34011KT P6SM OVC250=

USA.gov is the U.S. government's official web portal to all federal, state and local government web resources and services.